createdAt,value
2023-01-23T00:00:01.544Z,44.33
2023-01-23T00:02:29.178Z,42.40
2023-01-23T00:04:57.034Z,46.72
2023-01-23T00:07:24.750Z,51.08
2023-01-23T00:09:52.392Z,48.03
2023-01-23T00:12:19.968Z,48.10
2023-01-23T00:14:47.601Z,50.65
2023-01-23T00:17:16.582Z,42.25
2023-01-23T00:19:44.317Z,46.20
2023-01-23T00:22:14.230Z,47.78
2023-01-23T00:24:42.128Z,44.83
2023-01-23T00:27:09.793Z,48.92
2023-01-23T00:29:37.741Z,53.08
2023-01-23T00:32:05.748Z,43.28
2023-01-23T00:34:34.814Z,47.17
2023-01-23T00:37:02.502Z,39.88
2023-01-23T00:39:30.268Z,43.10
2023-01-23T00:41:57.937Z,57.70
2023-01-23T00:44:25.647Z,40.42
2023-01-23T00:46:53.295Z,47.45
2023-01-23T00:49:23.780Z,43.38
2023-01-23T00:51:56.324Z,31.92
2023-01-23T00:54:25.957Z,44.10
2023-01-23T00:56:53.840Z,48.92
2023-01-23T00:59:21.481Z,38.90
2023-01-23T01:01:49.228Z,39.80
2023-01-23T01:04:16.938Z,42.63
2023-01-23T01:06:44.628Z,41.97
2023-01-23T01:09:13.703Z,37.78
2023-01-23T01:11:41.564Z,41.65
2023-01-23T01:14:09.618Z,34.15
2023-01-23T01:16:37.518Z,37.80
2023-01-23T01:19:06.050Z,36.88
2023-01-23T01:21:33.683Z,35.17
2023-01-23T01:24:01.305Z,38.88
2023-01-23T01:26:30.343Z,38.05
2023-01-23T01:28:58.198Z,32.00
2023-01-23T01:31:25.930Z,30.20
2023-01-23T01:33:53.739Z,30.88
2023-01-23T01:36:23.160Z,27.52
2023-01-23T01:38:51.338Z,36.90
2023-01-23T01:41:19.017Z,30.88
2023-01-23T01:43:48.081Z,29.25
2023-01-23T01:46:20.148Z,34.60
2023-01-23T01:48:52.107Z,37.88
2023-01-23T01:53:50.850Z,34.72
2023-01-23T01:56:19.788Z,40.10
2023-01-23T01:58:50.729Z,35.88
2023-01-23T02:01:19.216Z,25.23
2023-01-23T02:03:47.098Z,35.33
2023-01-23T02:06:15.077Z,31.80
2023-01-23T02:08:46.681Z,32.55
2023-01-23T02:11:15.216Z,32.78
2023-01-23T02:13:43.152Z,37.22
2023-01-23T02:16:14.494Z,31.05
2023-01-23T02:18:45.653Z,38.03
2023-01-23T02:21:14.741Z,38.05
2023-01-23T02:23:56.852Z,35.58
2023-01-23T02:28:55.268Z,33.65
2023-01-23T02:31:23.967Z,32.13
2023-01-23T02:33:53.529Z,37.03
2023-01-23T02:36:23.296Z,34.55
2023-01-23T02:38:55.319Z,34.22
2023-01-23T02:41:29.035Z,37.65
2023-01-23T02:43:58.055Z,41.72
2023-01-23T02:46:26.368Z,36.58
2023-01-23T02:48:55.024Z,43.97
2023-01-23T02:51:24.386Z,35.95
2023-01-23T02:53:52.184Z,38.55
2023-01-23T02:56:20.337Z,38.28
2023-01-23T02:59:06.972Z,42.50
2023-01-23T03:01:35.877Z,35.35
2023-01-23T03:04:04.823Z,39.22
2023-01-23T03:06:36.222Z,41.17
2023-01-23T03:09:09.651Z,39.97
2023-01-23T03:11:39.049Z,42.08
2023-01-23T03:14:09.831Z,39.88
2023-01-23T03:16:38.579Z,42.72
2023-01-23T03:19:09.099Z,41.30
2023-01-23T03:21:38.384Z,47.80
2023-01-23T03:24:06.748Z,47.53
2023-01-23T03:26:34.567Z,40.15
2023-01-23T03:29:19.912Z,41.10
2023-01-23T03:31:49.053Z,45.05
2023-01-23T03:34:17.987Z,42.85
2023-01-23T03:36:45.884Z,49.22
2023-01-23T03:39:31.298Z,47.92
2023-01-23T03:41:59.002Z,43.42
2023-01-23T03:44:26.749Z,49.83
2023-01-23T03:46:55.952Z,48.35
2023-01-23T03:49:23.757Z,53.72
2023-01-23T03:51:51.463Z,53.15
2023-01-23T03:54:19.092Z,45.42
2023-01-23T03:56:47.046Z,48.72
2023-01-23T03:59:14.731Z,48.10
2023-01-23T04:01:42.523Z,49.28
2023-01-23T04:04:12.258Z,48.58
2023-01-23T04:06:40.344Z,51.97
2023-01-23T04:09:08.401Z,46.70
2023-01-23T04:11:36.603Z,45.72
2023-01-23T04:14:04.431Z,42.88
2023-01-23T04:16:32.185Z,44.90
2023-01-23T04:19:00.049Z,46.22
2023-01-23T04:21:29.142Z,47.05
2023-01-23T04:23:56.750Z,50.92
2023-01-23T04:26:24.543Z,51.53
2023-01-23T04:28:52.218Z,51.65
2023-01-23T04:31:20.059Z,50.35
2023-01-23T04:33:47.837Z,52.50
2023-01-23T04:36:15.555Z,46.40
2023-01-23T04:38:44.710Z,53.15
2023-01-23T04:41:16.374Z,52.60
2023-01-23T04:43:44.059Z,53.28
2023-01-23T04:46:11.762Z,53.72
2023-01-23T04:48:39.521Z,55.08
2023-01-23T04:51:07.447Z,51.33
2023-01-23T04:53:35.242Z,55.13
2023-01-23T04:56:04.922Z,51.92
2023-01-23T04:58:32.616Z,56.47
2023-01-23T05:01:03.870Z,45.20
2023-01-23T05:03:32.911Z,48.40
2023-01-23T05:06:00.537Z,54.75
2023-01-23T05:08:28.239Z,47.50
2023-01-23T05:10:55.993Z,51.75
2023-01-23T05:13:25.090Z,53.20
2023-01-23T05:15:52.796Z,48.30
2023-01-23T05:18:20.453Z,51.70
2023-01-23T05:20:48.116Z,56.03
2023-01-23T05:23:15.921Z,50.38
2023-01-23T05:25:44.926Z,44.85
2023-01-23T05:28:12.570Z,51.17
2023-01-23T05:30:41.773Z,53.35
2023-01-23T05:33:09.619Z,48.08
2023-01-23T05:35:39.642Z,49.63
2023-01-23T05:38:07.944Z,52.15
2023-01-23T05:40:36.034Z,55.30
2023-01-23T05:43:03.885Z,59.60
2023-01-23T05:45:31.986Z,54.38
2023-01-23T05:48:28.038Z,50.58
2023-01-23T05:51:26.159Z,50.08
2023-01-23T05:53:56.388Z,50.10
2023-01-23T06:00:16.893Z,57.30
2023-01-23T06:02:44.907Z,46.83
2023-01-23T06:05:14.545Z,46.85
2023-01-23T06:07:42.568Z,41.53
2023-01-23T06:10:11.578Z,49.97
2023-01-23T06:12:39.549Z,49.97
2023-01-23T06:15:20.471Z,50.40
2023-01-23T06:18:10.900Z,52.20
2023-01-23T06:20:47.036Z,47.40
2023-01-23T06:23:19.804Z,52.22
2023-01-23T06:25:48.251Z,49.95
2023-01-23T06:28:20.995Z,57.22
2023-01-23T06:30:50.939Z,46.17
2023-01-23T06:33:27.613Z,48.80
2023-01-23T06:36:03.715Z,46.35
2023-01-23T06:38:48.347Z,48.78
2023-01-23T06:45:00.433Z,49.85
2023-01-23T06:47:33.648Z,41.72
2023-01-23T06:51:00.837Z,49.22
2023-01-23T06:53:14.516Z,41.13
2023-01-23T06:55:49.837Z,46.28
2023-01-23T06:58:20.841Z,50.20
2023-01-23T07:00:57.261Z,39.83
2023-01-23T07:03:32.452Z,46.03
2023-01-23T07:06:22.714Z,40.88
2023-01-23T07:08:59.249Z,44.58
2023-01-23T07:11:43.448Z,53.42
2023-01-23T07:14:11.618Z,46.20
2023-01-23T07:16:42.468Z,51.85
2023-01-23T07:19:11.877Z,57.05
2023-01-23T07:21:41.438Z,53.00
2023-01-23T07:24:17.086Z,58.42
2023-01-23T07:26:45.158Z,52.88
2023-01-23T07:29:14.360Z,49.50
2023-01-23T07:31:42.515Z,57.03
2023-01-23T07:34:13.049Z,50.97
2023-01-23T07:36:43.474Z,52.70
2023-01-23T07:39:16.333Z,53.95
2023-01-23T07:41:46.520Z,60.50
2023-01-23T07:44:25.099Z,54.67
2023-01-23T07:47:07.536Z,53.10
2023-01-23T07:49:38.883Z,53.22
2023-01-23T07:52:09.008Z,55.47
2023-01-23T07:54:47.030Z,67.40
2023-01-23T07:57:19.644Z,80.97
2023-01-23T07:59:56.578Z,71.57
2023-01-23T08:02:26.395Z,75.18
2023-01-23T08:04:56.915Z,73.13
2023-01-23T08:07:28.660Z,75.75
2023-01-23T08:10:03.592Z,81.18
2023-01-23T08:12:33.145Z,76.15
2023-01-23T08:15:11.871Z,71.93
2023-01-23T08:17:41.012Z,76.40
2023-01-23T08:20:20.803Z,72.05
2023-01-23T08:22:49.437Z,83.72
2023-01-23T08:25:22.519Z,83.53
2023-01-23T08:27:50.566Z,97.57
2023-01-23T08:30:20.895Z,86.30
2023-01-23T08:32:54.283Z,79.10
2023-01-23T08:35:29.220Z,89.75
2023-01-23T08:38:04.879Z,85.28
2023-01-23T08:40:52.178Z,93.13
2023-01-23T08:43:43.295Z,80.20
2023-01-23T08:46:26.969Z,90.05
2023-01-23T08:49:27.851Z,88.90
2023-01-23T08:52:18.701Z,87.50
2023-01-23T08:55:10.265Z,78.07
2023-01-23T08:57:51.957Z,92.93
2023-01-23T09:00:55.967Z,70.47
2023-01-23T09:04:08.187Z,75.15
2023-01-23T09:06:50.493Z,80.97
2023-01-23T09:09:49.289Z,75.90
2023-01-23T09:13:14.310Z,71.18
2023-01-23T09:16:03.709Z,73.93
2023-01-23T09:18:45.614Z,80.38
2023-01-23T09:21:22.520Z,70.72
2023-01-23T09:24:18.907Z,74.90
2023-01-23T09:26:49.541Z,65.07
2023-01-23T09:29:21.040Z,66.32
2023-01-23T09:32:04.745Z,65.65
2023-01-23T09:34:43.051Z,64.55
2023-01-23T09:37:58.399Z,54.55
2023-01-23T09:41:06.429Z,58.60
2023-01-23T09:44:03.736Z,62.30
2023-01-23T09:47:16.365Z,48.35
2023-01-23T09:53:32.799Z,59.58
2023-01-23T09:59:58.840Z,46.40
2023-01-23T10:03:19.854Z,60.08
2023-01-23T10:10:48.703Z,47.97
2023-01-23T10:22:07.760Z,55.25
2023-01-23T10:41:08.136Z,62.42
2023-01-23T10:44:56.421Z,59.75
2023-01-23T10:48:09.206Z,53.45
2023-01-23T11:48:12.098Z,61.17
2023-01-23T11:50:56.150Z,55.33
2023-01-23T11:53:42.697Z,60.33
2023-01-23T11:57:34.619Z,61.13
2023-01-23T12:05:08.921Z,67.70
2023-01-23T12:28:32.026Z,62.15
2023-01-23T13:09:47.257Z,48.83
2023-01-23T13:12:36.003Z,46.95
2023-01-23T13:16:08.922Z,52.13
2023-01-23T13:21:57.471Z,44.38
2023-01-23T13:24:52.044Z,52.03
2023-01-23T13:27:43.272Z,49.33
2023-01-23T13:31:26.471Z,48.90
2023-01-23T13:34:37.380Z,46.97
2023-01-23T13:37:43.931Z,45.92
2023-01-23T13:40:22.708Z,45.92
2023-01-23T13:42:54.180Z,47.55
2023-01-23T13:45:39.183Z,48.13
2023-01-23T14:23:50.964Z,53.22
2023-01-23T14:26:43.815Z,47.85
2023-01-23T14:29:25.536Z,49.88
2023-01-23T14:32:01.844Z,47.40
2023-01-23T14:34:52.698Z,44.60
2023-01-23T14:37:31.625Z,46.60
2023-01-23T14:43:09.343Z,44.65
2023-01-23T14:48:45.273Z,50.40
2023-01-23T14:51:38.970Z,48.13
2023-01-23T14:54:33.353Z,50.80
2023-01-23T14:57:04.735Z,44.38
2023-01-23T14:59:34.435Z,49.00
2023-01-23T15:02:22.622Z,46.05
2023-01-23T15:05:34.638Z,45.83
2023-01-23T15:09:12.351Z,44.05
2023-01-23T15:11:40.348Z,48.75
2023-01-23T15:17:53.130Z,52.60
2023-01-23T15:21:20.157Z,46.33
2023-01-23T15:24:16.933Z,44.30
2023-01-23T15:27:33.605Z,43.60
2023-01-23T15:33:42.761Z,42.92
2023-01-23T15:36:26.648Z,44.20
2023-01-23T15:38:54.959Z,41.28
2023-01-23T15:41:55.580Z,42.58
2023-01-23T15:44:33.626Z,47.10
2023-01-23T15:47:13.655Z,44.08
2023-01-23T15:49:52.371Z,41.00
2023-01-23T15:52:53.232Z,38.92
2023-01-23T15:55:23.208Z,45.97
2023-01-23T15:57:56.941Z,41.38
2023-01-23T16:00:41.746Z,40.75
2023-01-23T16:03:12.978Z,44.30
2023-01-23T16:05:59.585Z,42.83
2023-01-23T16:09:05.141Z,48.83
2023-01-23T16:11:46.069Z,42.35
2023-01-23T16:14:48.918Z,41.70
2023-01-23T16:17:24.026Z,39.95
2023-01-23T16:20:04.451Z,42.63
2023-01-23T16:22:46.927Z,47.00
2023-01-23T16:25:52.994Z,48.25
2023-01-23T16:29:08.681Z,49.55
2023-01-23T16:31:54.091Z,49.20
2023-01-23T16:34:40.004Z,50.05
2023-01-23T16:37:13.235Z,45.17
2023-01-23T16:39:44.843Z,51.40
2023-01-23T16:42:27.995Z,46.40
2023-01-23T16:48:21.616Z,48.72
2023-01-23T16:51:00.990Z,41.60
2023-01-23T16:53:50.448Z,45.97
2023-01-23T16:56:52.934Z,46.03
2023-01-23T17:01:51.155Z,45.85
2023-01-23T17:04:22.046Z,45.58
2023-01-23T17:06:56.200Z,42.63
2023-01-23T17:09:36.381Z,42.80
2023-01-23T17:12:04.495Z,45.50
2023-01-23T17:14:32.693Z,41.85
2023-01-23T17:17:08.787Z,43.65
2023-01-23T17:19:39.463Z,40.85
2023-01-23T17:22:14.389Z,48.20
2023-01-23T17:24:44.293Z,43.15
2023-01-23T17:27:12.201Z,41.47
2023-01-23T17:29:48.685Z,43.50
2023-01-23T17:32:31.791Z,38.70
2023-01-23T17:35:02.653Z,45.33
2023-01-23T17:37:32.499Z,46.60
2023-01-23T17:40:00.494Z,44.63
2023-01-23T17:42:33.916Z,44.75
2023-01-23T17:45:01.817Z,49.65
2023-01-23T17:47:30.014Z,39.45
2023-01-23T17:49:58.451Z,48.78
2023-01-23T17:52:28.711Z,56.92
2023-01-23T17:54:57.718Z,48.67
2023-01-23T17:57:25.297Z,48.42
2023-01-23T17:59:54.855Z,46.05
2023-01-23T18:02:27.283Z,47.63
2023-01-23T18:04:55.747Z,52.73
2023-01-23T18:07:23.313Z,43.20
2023-01-23T18:09:51.160Z,45.25
2023-01-23T18:12:27.006Z,53.80
2023-01-23T18:14:58.408Z,47.25
2023-01-23T18:17:36.512Z,36.70
2023-01-23T18:20:05.033Z,47.08
2023-01-23T18:22:33.410Z,44.22
2023-01-23T18:25:01.496Z,45.33
2023-01-23T18:27:31.626Z,41.83
2023-01-23T18:30:21.433Z,55.00
2023-01-23T18:33:07.919Z,56.42
2023-01-23T18:36:00.985Z,52.78
2023-01-23T18:38:33.971Z,47.92
2023-01-23T18:41:11.564Z,44.83
2023-01-23T18:43:43.717Z,44.83
2023-01-23T18:46:14.051Z,46.40
2023-01-23T18:48:43.048Z,52.40
2023-01-23T18:51:20.302Z,45.97
2023-01-23T18:53:53.018Z,46.60
2023-01-23T18:56:26.077Z,50.45
2023-01-23T18:59:11.475Z,41.33
2023-01-23T19:01:45.004Z,43.80
2023-01-23T19:04:14.739Z,48.58
2023-01-23T19:06:44.198Z,44.95
2023-01-23T19:09:19.354Z,38.05
2023-01-23T19:11:59.425Z,36.22
2023-01-23T19:14:41.371Z,39.90
2023-01-23T19:17:16.609Z,31.63
2023-01-23T19:19:49.658Z,39.67
2023-01-23T19:22:19.190Z,37.70
2023-01-23T19:24:47.341Z,42.08
2023-01-23T19:27:21.301Z,37.33
2023-01-23T19:29:50.606Z,40.75
2023-01-23T19:32:18.904Z,40.42
2023-01-23T19:34:46.504Z,45.30
2023-01-23T19:37:14.747Z,41.42
2023-01-23T19:39:42.610Z,38.92
2023-01-23T19:42:14.053Z,37.65
2023-01-23T19:44:41.722Z,40.70
2023-01-23T19:47:10.875Z,42.90
2023-01-23T19:49:38.453Z,43.20
2023-01-23T19:52:06.101Z,43.47
2023-01-23T19:54:33.714Z,43.35
2023-01-23T19:57:01.576Z,33.40
2023-01-23T19:59:29.289Z,46.40
2023-01-23T20:01:57.079Z,40.75
2023-01-23T20:04:26.160Z,35.65
2023-01-23T20:06:53.806Z,34.17
2023-01-23T20:09:21.582Z,34.85
2023-01-23T20:11:49.245Z,38.22
2023-01-23T20:14:16.913Z,35.22
2023-01-23T20:16:44.690Z,40.22
2023-01-23T20:19:13.912Z,39.70
2023-01-23T20:21:43.075Z,42.00
2023-01-23T20:24:11.147Z,39.42
2023-01-23T20:27:08.754Z,40.63
2023-01-23T20:29:43.272Z,41.08
2023-01-23T20:32:13.775Z,37.13
2023-01-23T20:34:58.344Z,42.67
2023-01-23T20:38:43.819Z,47.72
2023-01-23T20:41:02.774Z,36.88
2023-01-23T20:43:40.509Z,37.78
2023-01-23T20:46:13.695Z,42.53
2023-01-23T20:48:52.529Z,44.53
2023-01-23T20:51:28.462Z,51.63
2023-01-23T20:53:58.872Z,41.08
2023-01-23T20:56:32.549Z,43.38
2023-01-23T20:59:24.134Z,50.15
2023-01-23T21:02:09.482Z,44.65
2023-01-23T21:04:40.695Z,44.60
2023-01-23T21:07:11.399Z,44.08
2023-01-23T21:09:40.602Z,39.95
2023-01-23T21:12:11.859Z,41.03
2023-01-23T21:14:48.337Z,39.30
2023-01-23T21:17:16.260Z,43.97
2023-01-23T21:19:44.669Z,42.40
2023-01-23T21:22:12.521Z,49.80
2023-01-23T21:24:44.483Z,36.15
2023-01-23T21:29:58.169Z,42.63
2023-01-23T21:32:33.098Z,44.97
2023-01-23T21:35:08.618Z,28.73
2023-01-23T21:37:37.257Z,38.05
2023-01-23T21:40:08.494Z,42.25
2023-01-23T21:42:37.090Z,30.20
2023-01-23T21:45:05.349Z,51.03
2023-01-23T21:47:42.936Z,45.50
2023-01-23T21:50:11.961Z,40.65
2023-01-23T21:52:39.756Z,44.42
2023-01-23T21:55:09.661Z,43.03
2023-01-23T21:57:37.429Z,37.45
2023-01-23T22:00:23.531Z,37.70
2023-01-23T22:02:51.300Z,38.95
2023-01-23T22:05:19.298Z,34.15
2023-01-23T22:07:48.449Z,24.02
2023-01-23T22:10:17.853Z,39.95
2023-01-23T22:12:45.516Z,40.10
2023-01-23T22:15:13.167Z,42.70
2023-01-23T22:17:40.812Z,41.83
2023-01-23T22:20:09.620Z,33.22
2023-01-23T22:22:37.229Z,38.40
2023-01-23T22:25:05.320Z,58.40
2023-01-23T22:27:34.358Z,43.95
2023-01-23T22:30:01.941Z,57.35
2023-01-23T22:32:54.384Z,41.70
2023-01-23T22:35:24.758Z,47.28
2023-01-23T22:37:52.751Z,30.85
2023-01-23T22:40:20.562Z,33.25
2023-01-23T22:42:49.622Z,36.35
2023-01-23T22:45:17.461Z,33.97
2023-01-23T22:47:45.020Z,32.53
2023-01-23T22:50:12.775Z,36.35
2023-01-23T22:52:41.803Z,42.13
2023-01-23T22:55:10.181Z,39.13
2023-01-23T22:57:38.041Z,37.22
2023-01-23T23:00:10.841Z,40.88
2023-01-23T23:02:38.883Z,38.10
2023-01-23T23:05:07.488Z,38.35
2023-01-23T23:07:36.408Z,33.95
2023-01-23T23:10:04.312Z,42.88
2023-01-23T23:12:31.934Z,39.72
2023-01-23T23:14:59.503Z,40.03
2023-01-23T23:17:29.868Z,39.28
2023-01-23T23:19:57.571Z,40.53
2023-01-23T23:22:25.139Z,39.90
2023-01-23T23:24:53.113Z,50.88
2023-01-23T23:27:20.746Z,37.97
2023-01-23T23:29:48.371Z,42.75
2023-01-23T23:32:16.181Z,39.92
2023-01-23T23:34:45.329Z,43.58
2023-01-23T23:37:13.022Z,45.67
2023-01-23T23:39:40.633Z,40.22
2023-01-23T23:42:08.345Z,43.10
2023-01-23T23:44:35.966Z,40.97
2023-01-23T23:47:03.597Z,48.92
2023-01-23T23:49:31.206Z,47.72
2023-01-23T23:52:00.199Z,45.50
2023-01-23T23:54:28.060Z,46.10
2023-01-23T23:56:55.778Z,46.50
2023-01-23T23:59:23.470Z,48.97
